SHT22A EGLL-EGJB
Flight info
| Callsign | SHT22A |
|---|---|
| Flight time | 0h 37m |
| Altitude | 18000 |
| Route | GASGU N866 SAM N63 LELNA |
| Aircraft | A20N/M-SDE2E3FGHIJ1RWXY/LB1 |
Departure
| Time | 2026-04-23 15:19 |
|---|---|
| Airport | London Heathrow Airport (EGLL) |
Arrival
| Time | 2026-04-23 15:57 |
|---|---|
| Airport | Guernsey Airport (EGJB) |
| Time | Latitude | Longitude | Altitude | Speed | Heading |
|---|---|---|---|---|---|
| 2026-04-23 15:06 | 51.47048 | -0.48581 | 78 ft | 0 kts | 270° |
| 2026-04-23 15:10 | 51.47048 | -0.48572 | 78 ft | 2 kts | 270° |
| 2026-04-23 15:10 | 51.47048 | -0.48548 | 78 ft | 2 kts | 270° |
| 2026-04-23 15:10 | 51.47048 | -0.48525 | 78 ft | 2 kts | 270° |
| 2026-04-23 15:11 | 51.47048 | -0.48510 | 78 ft | 2 kts | 270° |
| 2026-04-23 15:11 | 51.47052 | -0.48488 | 78 ft | 2 kts | 230° |
| 2026-04-23 15:11 | 51.47065 | -0.48473 | 78 ft | 2 kts | 198° |
| 2026-04-23 15:11 | 51.47073 | -0.48471 | 78 ft | 1 kts | 180° |
| 2026-04-23 15:12 | 51.47079 | -0.48471 | 78 ft | 0 kts | 179° |
| 2026-04-23 15:14 | 51.47061 | -0.48471 | 78 ft | 5 kts | 180° |
| 2026-04-23 15:15 | 51.47009 | -0.48471 | 78 ft | 10 kts | 180° |
| 2026-04-23 15:15 | 51.46930 | -0.48469 | 79 ft | 13 kts | 179° |
| 2026-04-23 15:15 | 51.46824 | -0.48469 | 80 ft | 16 kts | 181° |
| 2026-04-23 15:15 | 51.46708 | -0.48469 | 79 ft | 17 kts | 179° |
| 2026-04-23 15:16 | 51.46612 | -0.48469 | 78 ft | 5 kts | 180° |
| 2026-04-23 15:16 | 51.46610 | -0.48469 | 78 ft | 0 kts | 180° |
| 2026-04-23 15:16 | 51.46602 | -0.48469 | 78 ft | 3 kts | 179° |
| 2026-04-23 15:17 | 51.46553 | -0.48467 | 78 ft | 10 kts | 179° |
| 2026-04-23 15:17 | 51.46466 | -0.48462 | 79 ft | 10 kts | 172° |
| 2026-04-23 15:17 | 51.46476 | -0.48393 | 79 ft | 8 kts | 53° |
| 2026-04-23 15:17 | 51.46479 | -0.48374 | 78 ft | 0 kts | 91° |
| 2026-04-23 15:18 | 51.46479 | -0.48192 | 79 ft | 50 kts | 90° |
| 2026-04-23 15:18 | 51.46484 | -0.47326 | 79 ft | 113 kts | 89° |
| 2026-04-23 15:19 | 51.46481 | -0.45880 | 144 ft | 157 kts | 92° |
| 2026-04-23 15:19 | 51.46437 | -0.44216 | 694 ft | 160 kts | 91° |
| 2026-04-23 15:19 | 51.46462 | -0.42541 | 1430 ft | 159 kts | 88° |
| 2026-04-23 15:19 | 51.46283 | -0.40882 | 2099 ft | 163 kts | 110° |
| 2026-04-23 15:20 | 51.45657 | -0.39392 | 2531 ft | 179 kts | 128° |
| 2026-04-23 15:20 | 51.44893 | -0.37867 | 3009 ft | 190 kts | 121° |
| 2026-04-23 15:20 | 51.44170 | -0.36108 | 3451 ft | 205 kts | 121° |
| 2026-04-23 15:20 | 51.43239 | -0.34308 | 3808 ft | 232 kts | 143° |
| 2026-04-23 15:21 | 51.41679 | -0.33516 | 4333 ft | 255 kts | 173° |
| 2026-04-23 15:21 | 51.39893 | -0.33476 | 5005 ft | 267 kts | 176° |
| 2026-04-23 15:21 | 51.38049 | -0.33858 | 5839 ft | 276 kts | 198° |
| 2026-04-23 15:21 | 51.36461 | -0.35438 | 6716 ft | 283 kts | 219° |
| 2026-04-23 15:22 | 51.35065 | -0.37607 | 7583 ft | 287 kts | 224° |
| 2026-04-23 15:22 | 51.33651 | -0.39903 | 8398 ft | 292 kts | 223° |
| 2026-04-23 15:22 | 51.32196 | -0.42095 | 9196 ft | 296 kts | 218° |
| 2026-04-23 15:22 | 51.30609 | -0.44139 | 10009 ft | 300 kts | 222° |
| 2026-04-23 15:23 | 51.29416 | -0.46849 | 10775 ft | 308 kts | 248° |
| 2026-04-23 15:23 | 51.28918 | -0.50158 | 11298 ft | 322 kts | 263° |
| 2026-04-23 15:23 | 51.28599 | -0.53631 | 11711 ft | 339 kts | 261° |
| 2026-04-23 15:23 | 51.28128 | -0.57341 | 12089 ft | 356 kts | 257° |
| 2026-04-23 15:24 | 51.27467 | -0.61224 | 12433 ft | 374 kts | 254° |
| 2026-04-23 15:24 | 51.26709 | -0.65198 | 12772 ft | 390 kts | 252° |
| 2026-04-23 15:24 | 51.25905 | -0.69284 | 13367 ft | 398 kts | 252° |
| 2026-04-23 15:24 | 51.25096 | -0.73381 | 14076 ft | 401 kts | 252° |
| 2026-04-23 15:25 | 51.24265 | -0.77607 | 14790 ft | 404 kts | 252° |
| 2026-04-23 15:25 | 51.23432 | -0.81846 | 15491 ft | 407 kts | 252° |
| 2026-04-23 15:25 | 51.22584 | -0.86162 | 16160 ft | 411 kts | 252° |
| 2026-04-23 15:25 | 51.21740 | -0.90450 | 16805 ft | 415 kts | 252° |
| 2026-04-23 15:26 | 51.20629 | -0.94682 | 17465 ft | 418 kts | 241° |
| 2026-04-23 15:26 | 51.19051 | -0.98445 | 18046 ft | 420 kts | 230° |
| 2026-04-23 15:26 | 51.17105 | -1.01724 | 18339 ft | 421 kts | 223° |
| 2026-04-23 15:26 | 51.15060 | -1.04823 | 18358 ft | 420 kts | 222° |
| 2026-04-23 15:27 | 51.12980 | -1.07920 | 18353 ft | 420 kts | 222° |
| 2026-04-23 15:27 | 51.10961 | -1.10949 | 18351 ft | 420 kts | 223° |
| 2026-04-23 15:27 | 51.08883 | -1.14095 | 18351 ft | 420 kts | 223° |
| 2026-04-23 15:27 | 51.06841 | -1.17205 | 18350 ft | 421 kts | 223° |
| 2026-04-23 15:28 | 51.04742 | -1.20413 | 18350 ft | 421 kts | 223° |
| 2026-04-23 15:28 | 51.02678 | -1.23568 | 18350 ft | 421 kts | 223° |
| 2026-04-23 15:28 | 51.00614 | -1.26717 | 18349 ft | 422 kts | 223° |
| 2026-04-23 15:28 | 50.98533 | -1.29890 | 18349 ft | 422 kts | 223° |
| 2026-04-23 15:29 | 50.96395 | -1.32903 | 18343 ft | 421 kts | 218° |
| 2026-04-23 15:29 | 50.94116 | -1.35479 | 18344 ft | 420 kts | 211° |
| 2026-04-23 15:29 | 50.91635 | -1.37692 | 18342 ft | 419 kts | 206° |
| 2026-04-23 15:29 | 50.89074 | -1.39733 | 18340 ft | 419 kts | 205° |
| 2026-04-23 15:30 | 50.86460 | -1.41775 | 18340 ft | 419 kts | 205° |
| 2026-04-23 15:30 | 50.83948 | -1.43745 | 18339 ft | 418 kts | 205° |
| 2026-04-23 15:30 | 50.81360 | -1.45788 | 18339 ft | 418 kts | 205° |
| 2026-04-23 15:30 | 50.78806 | -1.47814 | 18336 ft | 418 kts | 206° |
| 2026-04-23 15:31 | 50.76257 | -1.49839 | 18333 ft | 419 kts | 206° |
| 2026-04-23 15:31 | 50.73724 | -1.51851 | 18331 ft | 419 kts | 206° |
| 2026-04-23 15:31 | 50.71197 | -1.53852 | 18329 ft | 419 kts | 205° |
| 2026-04-23 15:31 | 50.68614 | -1.55892 | 18359 ft | 419 kts | 206° |
| 2026-04-23 15:32 | 50.66035 | -1.57928 | 18330 ft | 419 kts | 206° |
| 2026-04-23 15:32 | 50.63465 | -1.59954 | 18326 ft | 420 kts | 206° |
| 2026-04-23 15:32 | 50.60887 | -1.61986 | 18353 ft | 420 kts | 206° |
| 2026-04-23 15:32 | 50.58281 | -1.64038 | 18361 ft | 421 kts | 206° |
| 2026-04-23 15:33 | 50.55720 | -1.66051 | 18343 ft | 420 kts | 205° |
| 2026-04-23 15:33 | 50.53115 | -1.68097 | 18344 ft | 420 kts | 205° |
| 2026-04-23 15:33 | 50.50532 | -1.70124 | 18343 ft | 421 kts | 205° |
| 2026-04-23 15:33 | 50.47969 | -1.72133 | 18323 ft | 421 kts | 205° |
| 2026-04-23 15:34 | 50.45376 | -1.74162 | 18328 ft | 421 kts | 205° |
| 2026-04-23 15:34 | 50.42751 | -1.76213 | 18320 ft | 422 kts | 205° |
| 2026-04-23 15:34 | 50.40148 | -1.78245 | 18305 ft | 421 kts | 205° |
| 2026-04-23 15:34 | 50.37555 | -1.80268 | 18318 ft | 422 kts | 205° |
| 2026-04-23 15:35 | 50.34968 | -1.82283 | 18322 ft | 422 kts | 205° |
| 2026-04-23 15:35 | 50.32370 | -1.84303 | 18293 ft | 422 kts | 205° |
| 2026-04-23 15:35 | 50.29760 | -1.86331 | 18307 ft | 422 kts | 205° |
| 2026-04-23 15:35 | 50.27137 | -1.88367 | 18309 ft | 422 kts | 205° |
| 2026-04-23 15:36 | 50.24523 | -1.90392 | 18308 ft | 423 kts | 205° |
| 2026-04-23 15:36 | 50.21949 | -1.92382 | 18304 ft | 423 kts | 205° |
| 2026-04-23 15:36 | 50.19291 | -1.94439 | 18297 ft | 424 kts | 205° |
| 2026-04-23 15:36 | 50.16716 | -1.96428 | 18301 ft | 424 kts | 205° |
| 2026-04-23 15:37 | 50.14097 | -1.98447 | 18303 ft | 424 kts | 205° |
| 2026-04-23 15:37 | 50.11517 | -2.00436 | 18288 ft | 424 kts | 206° |
| 2026-04-23 15:37 | 50.08893 | -2.02455 | 18300 ft | 423 kts | 206° |
| 2026-04-23 15:37 | 50.06282 | -2.04462 | 18291 ft | 424 kts | 205° |
| 2026-04-23 15:38 | 50.03697 | -2.06448 | 18285 ft | 424 kts | 206° |
| 2026-04-23 15:38 | 50.01081 | -2.08472 | 18291 ft | 424 kts | 207° |
| 2026-04-23 15:38 | 49.98600 | -2.10871 | 18283 ft | 425 kts | 216° |
| 2026-04-23 15:38 | 49.96362 | -2.13818 | 18282 ft | 424 kts | 225° |
| 2026-04-23 15:39 | 49.94408 | -2.17072 | 18074 ft | 423 kts | 229° |
| 2026-04-23 15:39 | 49.92508 | -2.20448 | 17753 ft | 421 kts | 230° |
| 2026-04-23 15:39 | 49.90609 | -2.23849 | 17381 ft | 418 kts | 229° |
| 2026-04-23 15:39 | 49.88760 | -2.27134 | 16932 ft | 416 kts | 229° |
| 2026-04-23 15:40 | 49.86885 | -2.30439 | 16445 ft | 412 kts | 228° |
| 2026-04-23 15:40 | 49.85113 | -2.33540 | 15942 ft | 410 kts | 228° |
| 2026-04-23 15:40 | 49.83268 | -2.36757 | 15392 ft | 408 kts | 227° |
| 2026-04-23 15:40 | 49.81415 | -2.39977 | 14839 ft | 405 kts | 227° |
| 2026-04-23 15:41 | 49.79570 | -2.43179 | 14298 ft | 403 kts | 227° |
| 2026-04-23 15:41 | 49.77745 | -2.46341 | 13759 ft | 400 kts | 226° |
| 2026-04-23 15:41 | 49.75966 | -2.49416 | 13258 ft | 397 kts | 226° |
| 2026-04-23 15:41 | 49.74154 | -2.52544 | 12700 ft | 394 kts | 226° |
| 2026-04-23 15:42 | 49.72379 | -2.55597 | 12205 ft | 391 kts | 225° |
| 2026-04-23 15:42 | 49.70374 | -2.58166 | 11645 ft | 382 kts | 205° |
| 2026-04-23 15:42 | 49.67966 | -2.59394 | 11209 ft | 366 kts | 184° |
| 2026-04-23 15:42 | 49.65546 | -2.59567 | 11063 ft | 349 kts | 177° |
| 2026-04-23 15:43 | 49.63174 | -2.59610 | 10900 ft | 336 kts | 177° |
| 2026-04-23 15:43 | 49.60926 | -2.59659 | 10738 ft | 317 kts | 177° |
| 2026-04-23 15:43 | 49.58828 | -2.59727 | 10580 ft | 294 kts | 177° |
| 2026-04-23 15:43 | 49.56836 | -2.59803 | 10442 ft | 281 kts | 177° |
| 2026-04-23 15:44 | 49.54925 | -2.59878 | 10321 ft | 274 kts | 177° |
| 2026-04-23 15:44 | 49.53032 | -2.59959 | 10081 ft | 273 kts | 176° |
| 2026-04-23 15:44 | 49.51175 | -2.60037 | 9729 ft | 273 kts | 177° |
| 2026-04-23 15:44 | 49.49297 | -2.60120 | 9386 ft | 271 kts | 177° |
| 2026-04-23 15:45 | 49.47429 | -2.60205 | 9053 ft | 269 kts | 178° |
| 2026-04-23 15:45 | 49.45587 | -2.60786 | 8685 ft | 278 kts | 202° |
| 2026-04-23 15:45 | 49.44101 | -2.62690 | 8334 ft | 286 kts | 232° |
| 2026-04-23 15:45 | 49.43356 | -2.65499 | 8001 ft | 290 kts | 260° |
| 2026-04-23 15:46 | 49.43235 | -2.68522 | 7704 ft | 288 kts | 266° |
| 2026-04-23 15:46 | 49.43176 | -2.71550 | 7392 ft | 286 kts | 266° |
| 2026-04-23 15:46 | 49.43096 | -2.74573 | 7079 ft | 283 kts | 265° |
| 2026-04-23 15:46 | 49.42991 | -2.77569 | 6786 ft | 281 kts | 264° |
| 2026-04-23 15:47 | 49.42894 | -2.80546 | 6460 ft | 279 kts | 270° |
| 2026-04-23 15:47 | 49.43388 | -2.83379 | 6138 ft | 277 kts | 303° |
| 2026-04-23 15:47 | 49.44573 | -2.85579 | 5867 ft | 272 kts | 317° |
| 2026-04-23 15:47 | 49.45926 | -2.87615 | 5563 ft | 270 kts | 319° |
| 2026-04-23 15:48 | 49.47249 | -2.89608 | 5287 ft | 268 kts | 317° |
| 2026-04-23 15:48 | 49.48544 | -2.91632 | 4995 ft | 260 kts | 316° |
| 2026-04-23 15:48 | 49.49536 | -2.93844 | 4654 ft | 254 kts | 288° |
| 2026-04-23 15:48 | 49.49720 | -2.96458 | 4329 ft | 240 kts | 255° |
| 2026-04-23 15:49 | 49.49146 | -2.98737 | 4055 ft | 225 kts | 227° |
| 2026-04-23 15:49 | 49.48146 | -3.00262 | 3806 ft | 211 kts | 203° |
| 2026-04-23 15:49 | 49.46848 | -3.01082 | 3565 ft | 195 kts | 180° |
| 2026-04-23 15:49 | 49.45528 | -3.01103 | 3544 ft | 186 kts | 161° |
| 2026-04-23 15:50 | 49.44324 | -3.00445 | 3528 ft | 180 kts | 143° |
| 2026-04-23 15:50 | 49.43381 | -2.99268 | 3486 ft | 175 kts | 125° |
| 2026-04-23 15:50 | 49.42857 | -2.97629 | 3458 ft | 174 kts | 107° |
| 2026-04-23 15:50 | 49.42626 | -2.95838 | 3415 ft | 174 kts | 97° |
| 2026-04-23 15:51 | 49.42573 | -2.93967 | 3390 ft | 175 kts | 91° |
| 2026-04-23 15:51 | 49.42633 | -2.92105 | 3373 ft | 175 kts | 90° |
| 2026-04-23 15:51 | 49.42705 | -2.90251 | 3307 ft | 174 kts | 90° |
| 2026-04-23 15:51 | 49.42766 | -2.88433 | 3220 ft | 166 kts | 90° |
| 2026-04-23 15:52 | 49.42815 | -2.86718 | 2956 ft | 162 kts | 90° |
| 2026-04-23 15:52 | 49.42857 | -2.85031 | 2733 ft | 155 kts | 90° |
| 2026-04-23 15:52 | 49.42896 | -2.83443 | 2543 ft | 147 kts | 91° |
| 2026-04-23 15:52 | 49.42932 | -2.81940 | 2382 ft | 137 kts | 91° |
| 2026-04-23 15:53 | 49.42965 | -2.80566 | 2372 ft | 126 kts | 91° |
| 2026-04-23 15:53 | 49.42996 | -2.79234 | 2405 ft | 127 kts | 91° |
| 2026-04-23 15:53 | 49.43029 | -2.77868 | 2364 ft | 127 kts | 90° |
| 2026-04-23 15:53 | 49.43062 | -2.76533 | 2224 ft | 127 kts | 90° |
| 2026-04-23 15:54 | 49.43096 | -2.75184 | 2062 ft | 126 kts | 90° |
| 2026-04-23 15:54 | 49.43130 | -2.73856 | 1886 ft | 126 kts | 90° |
| 2026-04-23 15:54 | 49.43165 | -2.72533 | 1712 ft | 126 kts | 90° |
| 2026-04-23 15:54 | 49.43200 | -2.71208 | 1543 ft | 125 kts | 89° |
| 2026-04-23 15:55 | 49.43232 | -2.69891 | 1374 ft | 125 kts | 88° |
| 2026-04-23 15:55 | 49.43269 | -2.68555 | 1210 ft | 124 kts | 88° |
| 2026-04-23 15:55 | 49.43303 | -2.67229 | 1045 ft | 124 kts | 88° |
| 2026-04-23 15:55 | 49.43338 | -2.65913 | 898 ft | 124 kts | 86° |
| 2026-04-23 15:56 | 49.43373 | -2.64592 | 730 ft | 124 kts | 86° |
| 2026-04-23 15:56 | 49.43402 | -2.63273 | 557 ft | 123 kts | 86° |
| 2026-04-23 15:56 | 49.43441 | -2.61986 | 385 ft | 122 kts | 83° |
| 2026-04-23 15:56 | 49.43486 | -2.60700 | 302 ft | 101 kts | 91° |
| 2026-04-23 15:57 | 49.43502 | -2.60069 | 323 ft | 31 kts | 89° |
| 2026-04-23 15:57 | 49.43509 | -2.59777 | 330 ft | 24 kts | 87° |
| 2026-04-23 15:57 | 49.43518 | -2.59544 | 334 ft | 19 kts | 85° |
| 2026-04-23 15:57 | 49.43525 | -2.59359 | 335 ft | 14 kts | 89° |
| 2026-04-23 15:58 | 49.43521 | -2.59227 | 333 ft | 9 kts | 131° |
| 2026-04-23 15:58 | 49.43454 | -2.59197 | 332 ft | 10 kts | 175° |
| 2026-04-23 15:58 | 49.43385 | -2.59226 | 333 ft | 10 kts | 227° |
| 2026-04-23 15:58 | 49.43370 | -2.59332 | 335 ft | 10 kts | 269° |
| 2026-04-23 15:59 | 49.43367 | -2.59447 | 335 ft | 11 kts | 265° |
| 2026-04-23 15:59 | 49.43364 | -2.59572 | 334 ft | 12 kts | 266° |
| 2026-04-23 15:59 | 49.43338 | -2.59626 | 333 ft | 6 kts | 176° |
| 2026-04-23 15:59 | 49.43292 | -2.59624 | 333 ft | 7 kts | 178° |
| 2026-04-23 16:00 | 49.43260 | -2.59622 | 333 ft | 2 kts | 177° |
| 2026-04-23 16:00 | 49.43255 | -2.59622 | 334 ft | 0 kts | 177° |